sensor_id;sensor_type;location;lat;lon;timestamp;P1;durP1;ratioP1;P2;durP2;ratioP2
60478;SDS011;46321;48.398;11.754;2022-12-19T00:00:43;35.03;;;11.88;;
60478;SDS011;46321;48.398;11.754;2022-12-19T00:03:09;49.60;;;15.25;;
60478;SDS011;46321;48.398;11.754;2022-12-19T00:05:35;42.30;;;14.52;;
60478;SDS011;46321;48.398;11.754;2022-12-19T00:08:01;40.00;;;14.48;;
60478;SDS011;46321;48.398;11.754;2022-12-19T00:10:27;49.55;;;15.57;;
60478;SDS011;46321;48.398;11.754;2022-12-19T00:12:52;41.05;;;14.65;;
60478;SDS011;46321;48.398;11.754;2022-12-19T00:15:17;50.78;;;15.63;;
60478;SDS011;46321;48.398;11.754;2022-12-19T00:17:43;46.58;;;15.75;;
60478;SDS011;46321;48.398;11.754;2022-12-19T00:20:08;51.67;;;14.95;;
60478;SDS011;46321;48.398;11.754;2022-12-19T00:22:34;45.83;;;16.00;;
60478;SDS011;46321;48.398;11.754;2022-12-19T00:24:59;45.17;;;15.13;;
60478;SDS011;46321;48.398;11.754;2022-12-19T00:27:25;41.33;;;15.02;;
60478;SDS011;46321;48.398;11.754;2022-12-19T00:29:50;43.88;;;13.80;;
60478;SDS011;46321;48.398;11.754;2022-12-19T00:32:15;49.00;;;16.02;;
60478;SDS011;46321;48.398;11.754;2022-12-19T00:34:40;41.38;;;14.45;;
60478;SDS011;46321;48.398;11.754;2022-12-19T00:37:06;48.30;;;15.52;;
60478;SDS011;46321;48.398;11.754;2022-12-19T00:39:31;44.03;;;15.65;;
60478;SDS011;46321;48.398;11.754;2022-12-19T00:41:56;44.55;;;14.73;;
60478;SDS011;46321;48.398;11.754;2022-12-19T00:44:22;44.30;;;14.95;;
60478;SDS011;46321;48.398;11.754;2022-12-19T00:46:47;51.28;;;16.05;;
60478;SDS011;46321;48.398;11.754;2022-12-19T00:49:12;52.00;;;17.00;;
60478;SDS011;46321;48.398;11.754;2022-12-19T00:51:37;45.67;;;16.95;;
60478;SDS011;46321;48.398;11.754;2022-12-19T00:54:03;42.65;;;14.27;;
60478;SDS011;46321;48.398;11.754;2022-12-19T00:56:30;41.72;;;15.40;;
60478;SDS011;46321;48.398;11.754;2022-12-19T00:58:56;50.60;;;16.05;;
60478;SDS011;46321;48.398;11.754;2022-12-19T01:01:33;47.20;;;16.23;;
60478;SDS011;46321;48.398;11.754;2022-12-19T01:04:00;40.20;;;14.27;;
60478;SDS011;46321;48.398;11.754;2022-12-19T01:06:26;47.50;;;17.30;;
60478;SDS011;46321;48.398;11.754;2022-12-19T01:08:52;45.47;;;15.40;;
60478;SDS011;46321;48.398;11.754;2022-12-19T01:11:17;43.30;;;15.98;;
60478;SDS011;46321;48.398;11.754;2022-12-19T01:14:03;46.50;;;15.07;;
60478;SDS011;46321;48.398;11.754;2022-12-19T01:16:28;35.90;;;13.75;;
60478;SDS011;46321;48.398;11.754;2022-12-19T01:18:53;44.88;;;15.02;;
60478;SDS011;46321;48.398;11.754;2022-12-19T01:21:19;49.58;;;15.85;;
60478;SDS011;46321;48.398;11.754;2022-12-19T01:23:44;44.17;;;14.32;;
60478;SDS011;46321;48.398;11.754;2022-12-19T01:26:09;52.10;;;15.05;;
60478;SDS011;46321;48.398;11.754;2022-12-19T01:28:34;45.33;;;14.32;;
60478;SDS011;46321;48.398;11.754;2022-12-19T01:31:03;50.03;;;15.55;;
60478;SDS011;46321;48.398;11.754;2022-12-19T01:33:29;46.83;;;14.80;;
60478;SDS011;46321;48.398;11.754;2022-12-19T01:35:54;37.58;;;13.52;;
60478;SDS011;46321;48.398;11.754;2022-12-19T01:38:20;52.88;;;15.15;;
60478;SDS011;46321;48.398;11.754;2022-12-19T01:40:49;52.70;;;15.18;;
60478;SDS011;46321;48.398;11.754;2022-12-19T01:43:15;41.50;;;13.93;;
60478;SDS011;46321;48.398;11.754;2022-12-19T01:45:41;41.58;;;14.07;;
60478;SDS011;46321;48.398;11.754;2022-12-19T01:48:21;46.03;;;15.13;;
60478;SDS011;46321;48.398;11.754;2022-12-19T01:51:01;39.17;;;13.50;;
60478;SDS011;46321;48.398;11.754;2022-12-19T01:53:30;39.38;;;14.70;;
60478;SDS011;46321;48.398;11.754;2022-12-19T01:56:00;38.00;;;13.52;;
60478;SDS011;46321;48.398;11.754;2022-12-19T01:58:28;46.15;;;15.02;;
60478;SDS011;46321;48.398;11.754;2022-12-19T02:00:54;47.42;;;15.70;;
60478;SDS011;46321;48.398;11.754;2022-12-19T02:03:26;49.85;;;16.23;;
60478;SDS011;46321;48.398;11.754;2022-12-19T02:05:52;49.75;;;15.65;;
60478;SDS011;46321;48.398;11.754;2022-12-19T02:08:18;47.20;;;14.57;;
60478;SDS011;46321;48.398;11.754;2022-12-19T02:10:44;52.67;;;15.95;;
60478;SDS011;46321;48.398;11.754;2022-12-19T02:13:10;48.00;;;15.60;;
60478;SDS011;46321;48.398;11.754;2022-12-19T02:15:47;45.88;;;14.40;;
60478;SDS011;46321;48.398;11.754;2022-12-19T02:21:26;37.45;;;13.95;;
60478;SDS011;46321;48.398;11.754;2022-12-19T02:24:05;44.03;;;14.73;;
60478;SDS011;46321;48.398;11.754;2022-12-19T02:26:40;42.15;;;15.40;;
60478;SDS011;46321;48.398;11.754;2022-12-19T02:34:42;45.13;;;14.18;;
60478;SDS011;46321;48.398;11.754;2022-12-19T02:37:37;44.65;;;14.18;;
60478;SDS011;46321;48.398;11.754;2022-12-19T02:40:22;41.38;;;14.02;;
60478;SDS011;46321;48.398;11.754;2022-12-19T02:42:59;39.25;;;15.05;;
60478;SDS011;46321;48.398;11.754;2022-12-19T02:45:29;38.72;;;12.90;;
60478;SDS011;46321;48.398;11.754;2022-12-19T02:48:00;43.00;;;13.75;;
60478;SDS011;46321;48.398;11.754;2022-12-19T02:50:37;38.35;;;13.82;;
60478;SDS011;46321;48.398;11.754;2022-12-19T02:53:12;43.50;;;15.23;;
60478;SDS011;46321;48.398;11.754;2022-12-19T02:55:45;41.10;;;13.65;;
60478;SDS011;46321;48.398;11.754;2022-12-19T02:58:32;43.50;;;13.85;;
60478;SDS011;46321;48.398;11.754;2022-12-19T03:01:58;43.65;;;14.32;;
60478;SDS011;46321;48.398;11.754;2022-12-19T03:13:20;49.40;;;15.77;;
60478;SDS011;46321;48.398;11.754;2022-12-19T03:15:49;51.90;;;15.50;;
60478;SDS011;46321;48.398;11.754;2022-12-19T03:18:15;46.38;;;14.93;;
60478;SDS011;46321;48.398;11.754;2022-12-19T03:20:46;47.75;;;15.35;;
60478;SDS011;46321;48.398;11.754;2022-12-19T03:23:16;45.35;;;14.23;;
60478;SDS011;46321;48.398;11.754;2022-12-19T03:25:45;41.40;;;14.73;;
60478;SDS011;46321;48.398;11.754;2022-12-19T03:28:16;44.80;;;14.85;;
60478;SDS011;46321;48.398;11.754;2022-12-19T03:30:46;48.75;;;14.85;;
60478;SDS011;46321;48.398;11.754;2022-12-19T03:33:13;51.85;;;16.40;;
60478;SDS011;46321;48.398;11.754;2022-12-19T03:35:42;46.15;;;14.65;;
60478;SDS011;46321;48.398;11.754;2022-12-19T03:38:09;46.40;;;15.05;;
60478;SDS011;46321;48.398;11.754;2022-12-19T03:40:36;44.72;;;15.77;;
60478;SDS011;46321;48.398;11.754;2022-12-19T03:43:07;45.83;;;14.95;;
60478;SDS011;46321;48.398;11.754;2022-12-19T03:45:44;52.65;;;15.27;;
60478;SDS011;46321;48.398;11.754;2022-12-19T03:51:24;45.85;;;15.15;;
60478;SDS011;46321;48.398;11.754;2022-12-19T03:56:52;45.35;;;15.60;;
60478;SDS011;46321;48.398;11.754;2022-12-19T03:59:35;52.42;;;17.00;;
60478;SDS011;46321;48.398;11.754;2022-12-19T04:02:05;44.67;;;14.75;;
60478;SDS011;46321;48.398;11.754;2022-12-19T04:04:36;54.63;;;16.23;;
60478;SDS011;46321;48.398;11.754;2022-12-19T04:07:06;46.58;;;16.13;;
60478;SDS011;46321;48.398;11.754;2022-12-19T04:09:32;43.03;;;15.73;;
60478;SDS011;46321;48.398;11.754;2022-12-19T04:12:02;54.40;;;16.90;;
60478;SDS011;46321;48.398;11.754;2022-12-19T04:14:32;54.05;;;16.60;;
60478;SDS011;46321;48.398;11.754;2022-12-19T04:17:21;48.75;;;15.43;;
60478;SDS011;46321;48.398;11.754;2022-12-19T04:20:02;45.35;;;14.40;;
60478;SDS011;46321;48.398;11.754;2022-12-19T04:22:40;45.70;;;14.63;;
60478;SDS011;46321;48.398;11.754;2022-12-19T04:25:11;47.42;;;16.10;;
60478;SDS011;46321;48.398;11.754;2022-12-19T04:27:40;43.25;;;15.88;;
60478;SDS011;46321;48.398;11.754;2022-12-19T04:30:14;47.05;;;14.23;;
60478;SDS011;46321;48.398;11.754;2022-12-19T04:32:41;43.83;;;15.43;;
60478;SDS011;46321;48.398;11.754;2022-12-19T04:35:10;39.90;;;14.55;;
60478;SDS011;46321;48.398;11.754;2022-12-19T04:37:35;51.95;;;16.20;;
60478;SDS011;46321;48.398;11.754;2022-12-19T04:40:01;43.45;;;14.60;;
60478;SDS011;46321;48.398;11.754;2022-12-19T04:42:27;48.58;;;14.88;;
60478;SDS011;46321;48.398;11.754;2022-12-19T04:44:52;49.35;;;16.33;;
60478;SDS011;46321;48.398;11.754;2022-12-19T04:47:17;43.30;;;15.48;;
60478;SDS011;46321;48.398;11.754;2022-12-19T04:49:43;52.83;;;15.77;;
60478;SDS011;46321;48.398;11.754;2022-12-19T04:52:08;53.85;;;16.08;;
60478;SDS011;46321;48.398;11.754;2022-12-19T04:54:33;52.72;;;17.00;;
60478;SDS011;46321;48.398;11.754;2022-12-19T04:56:59;49.22;;;15.70;;
60478;SDS011;46321;48.398;11.754;2022-12-19T04:59:24;48.38;;;14.90;;
60478;SDS011;46321;48.398;11.754;2022-12-19T05:01:50;51.75;;;16.40;;
60478;SDS011;46321;48.398;11.754;2022-12-19T05:04:15;44.30;;;15.20;;
60478;SDS011;46321;48.398;11.754;2022-12-19T05:06:40;44.70;;;15.52;;
60478;SDS011;46321;48.398;11.754;2022-12-19T05:09:06;47.28;;;15.55;;
60478;SDS011;46321;48.398;11.754;2022-12-19T05:11:32;45.35;;;16.40;;
60478;SDS011;46321;48.398;11.754;2022-12-19T05:13:57;48.28;;;16.45;;
60478;SDS011;46321;48.398;11.754;2022-12-19T05:16:23;45.67;;;14.95;;
60478;SDS011;46321;48.398;11.754;2022-12-19T05:18:48;49.63;;;16.10;;
60478;SDS011;46321;48.398;11.754;2022-12-19T05:21:14;50.90;;;17.33;;
60478;SDS011;46321;48.398;11.754;2022-12-19T05:23:39;44.65;;;14.85;;
60478;SDS011;46321;48.398;11.754;2022-12-19T05:26:05;51.95;;;16.85;;
60478;SDS011;46321;48.398;11.754;2022-12-19T05:28:31;51.70;;;17.52;;
60478;SDS011;46321;48.398;11.754;2022-12-19T05:33:28;46.33;;;15.75;;
60478;SDS011;46321;48.398;11.754;2022-12-19T05:35:53;50.40;;;17.92;;
60478;SDS011;46321;48.398;11.754;2022-12-19T05:38:18;54.00;;;16.48;;
60478;SDS011;46321;48.398;11.754;2022-12-19T05:40:44;48.67;;;16.80;;
60478;SDS011;46321;48.398;11.754;2022-12-19T05:43:09;53.25;;;17.13;;
60478;SDS011;46321;48.398;11.754;2022-12-19T05:45:37;54.38;;;17.67;;
60478;SDS011;46321;48.398;11.754;2022-12-19T05:48:03;44.55;;;15.30;;
60478;SDS011;46321;48.398;11.754;2022-12-19T05:50:28;48.05;;;16.15;;
60478;SDS011;46321;48.398;11.754;2022-12-19T05:52:54;47.55;;;16.90;;
60478;SDS011;46321;48.398;11.754;2022-12-19T05:55:19;48.33;;;15.85;;
60478;SDS011;46321;48.398;11.754;2022-12-19T05:57:44;52.30;;;18.55;;
60478;SDS011;46321;48.398;11.754;2022-12-19T06:00:10;52.25;;;16.48;;
60478;SDS011;46321;48.398;11.754;2022-12-19T06:02:35;48.75;;;15.93;;
60478;SDS011;46321;48.398;11.754;2022-12-19T06:05:01;49.72;;;17.17;;
60478;SDS011;46321;48.398;11.754;2022-12-19T06:07:26;52.30;;;16.63;;
60478;SDS011;46321;48.398;11.754;2022-12-19T06:09:51;50.70;;;16.60;;
60478;SDS011;46321;48.398;11.754;2022-12-19T06:12:16;47.15;;;15.93;;
60478;SDS011;46321;48.398;11.754;2022-12-19T06:14:42;45.78;;;15.90;;
60478;SDS011;46321;48.398;11.754;2022-12-19T06:17:07;53.60;;;17.27;;
60478;SDS011;46321;48.398;11.754;2022-12-19T06:19:32;44.70;;;17.05;;
60478;SDS011;46321;48.398;11.754;2022-12-19T06:21:58;53.58;;;17.38;;
60478;SDS011;46321;48.398;11.754;2022-12-19T06:24:23;45.20;;;16.17;;
60478;SDS011;46321;48.398;11.754;2022-12-19T06:26:49;50.20;;;16.27;;
60478;SDS011;46321;48.398;11.754;2022-12-19T06:29:14;44.92;;;16.05;;
60478;SDS011;46321;48.398;11.754;2022-12-19T06:31:40;44.88;;;15.00;;
60478;SDS011;46321;48.398;11.754;2022-12-19T06:34:05;54.60;;;17.40;;
60478;SDS011;46321;48.398;11.754;2022-12-19T06:36:30;50.00;;;16.30;;
60478;SDS011;46321;48.398;11.754;2022-12-19T06:38:56;51.67;;;16.80;;
60478;SDS011;46321;48.398;11.754;2022-12-19T06:41:22;50.58;;;17.15;;
60478;SDS011;46321;48.398;11.754;2022-12-19T06:44:07;46.10;;;15.55;;
60478;SDS011;46321;48.398;11.754;2022-12-19T06:46:34;47.45;;;16.92;;
60478;SDS011;46321;48.398;11.754;2022-12-19T06:49:00;44.42;;;15.27;;
60478;SDS011;46321;48.398;11.754;2022-12-19T06:51:26;45.50;;;16.95;;
60478;SDS011;46321;48.398;11.754;2022-12-19T06:53:51;46.25;;;16.70;;
60478;SDS011;46321;48.398;11.754;2022-12-19T06:56:16;47.78;;;16.17;;
60478;SDS011;46321;48.398;11.754;2022-12-19T06:58:42;48.28;;;16.58;;
60478;SDS011;46321;48.398;11.754;2022-12-19T07:01:14;48.70;;;17.50;;
60478;SDS011;46321;48.398;11.754;2022-12-19T07:03:44;49.15;;;17.38;;
60478;SDS011;46321;48.398;11.754;2022-12-19T07:06:11;40.75;;;15.82;;
60478;SDS011;46321;48.398;11.754;2022-12-19T07:08:36;50.95;;;15.88;;
60478;SDS011;46321;48.398;11.754;2022-12-19T07:11:01;45.78;;;16.58;;
60478;SDS011;46321;48.398;11.754;2022-12-19T07:13:27;46.17;;;16.63;;
60478;SDS011;46321;48.398;11.754;2022-12-19T07:15:52;47.58;;;16.33;;
60478;SDS011;46321;48.398;11.754;2022-12-19T07:18:21;50.47;;;17.33;;
60478;SDS011;46321;48.398;11.754;2022-12-19T07:20:50;48.85;;;17.38;;
60478;SDS011;46321;48.398;11.754;2022-12-19T07:23:16;47.33;;;17.30;;
60478;SDS011;46321;48.398;11.754;2022-12-19T07:25:44;54.10;;;18.35;;
60478;SDS011;46321;48.398;11.754;2022-12-19T07:28:10;50.67;;;17.13;;
60478;SDS011;46321;48.398;11.754;2022-12-19T07:30:35;49.17;;;16.63;;
60478;SDS011;46321;48.398;11.754;2022-12-19T07:33:00;46.78;;;16.83;;
60478;SDS011;46321;48.398;11.754;2022-12-19T07:35:26;49.80;;;16.80;;
60478;SDS011;46321;48.398;11.754;2022-12-19T07:37:51;49.53;;;16.98;;
60478;SDS011;46321;48.398;11.754;2022-12-19T07:40:17;48.85;;;17.95;;
60478;SDS011;46321;48.398;11.754;2022-12-19T07:42:42;52.83;;;17.25;;
60478;SDS011;46321;48.398;11.754;2022-12-19T07:45:08;49.80;;;16.38;;
60478;SDS011;46321;48.398;11.754;2022-12-19T07:47:34;48.65;;;16.92;;
60478;SDS011;46321;48.398;11.754;2022-12-19T07:49:59;45.85;;;16.45;;
60478;SDS011;46321;48.398;11.754;2022-12-19T07:52:25;39.95;;;15.60;;
60478;SDS011;46321;48.398;11.754;2022-12-19T07:54:51;48.33;;;16.02;;
60478;SDS011;46321;48.398;11.754;2022-12-19T07:57:16;45.67;;;15.57;;
60478;SDS011;46321;48.398;11.754;2022-12-19T07:59:42;43.67;;;16.52;;
60478;SDS011;46321;48.398;11.754;2022-12-19T08:02:07;43.95;;;16.92;;
60478;SDS011;46321;48.398;11.754;2022-12-19T08:04:33;49.55;;;16.70;;
60478;SDS011;46321;48.398;11.754;2022-12-19T08:06:58;47.22;;;15.82;;
60478;SDS011;46321;48.398;11.754;2022-12-19T08:09:23;49.85;;;17.35;;
60478;SDS011;46321;48.398;11.754;2022-12-19T08:11:51;47.60;;;16.00;;
60478;SDS011;46321;48.398;11.754;2022-12-19T08:14:17;47.08;;;16.80;;
60478;SDS011;46321;48.398;11.754;2022-12-19T08:16:42;47.28;;;16.73;;
60478;SDS011;46321;48.398;11.754;2022-12-19T08:19:08;51.40;;;17.83;;
60478;SDS011;46321;48.398;11.754;2022-12-19T08:21:33;53.03;;;17.27;;
60478;SDS011;46321;48.398;11.754;2022-12-19T08:23:58;51.80;;;17.98;;
60478;SDS011;46321;48.398;11.754;2022-12-19T08:26:24;53.45;;;16.23;;
60478;SDS011;46321;48.398;11.754;2022-12-19T08:28:51;49.05;;;16.73;;
60478;SDS011;46321;48.398;11.754;2022-12-19T08:31:18;46.10;;;16.83;;
60478;SDS011;46321;48.398;11.754;2022-12-19T08:33:44;44.25;;;15.63;;
60478;SDS011;46321;48.398;11.754;2022-12-19T08:36:12;45.40;;;16.42;;
60478;SDS011;46321;48.398;11.754;2022-12-19T08:38:39;47.20;;;15.88;;
60478;SDS011;46321;48.398;11.754;2022-12-19T08:41:06;42.38;;;16.77;;
60478;SDS011;46321;48.398;11.754;2022-12-19T08:43:31;49.88;;;18.02;;
60478;SDS011;46321;48.398;11.754;2022-12-19T08:45:57;50.33;;;17.55;;
60478;SDS011;46321;48.398;11.754;2022-12-19T08:48:22;46.90;;;17.05;;
60478;SDS011;46321;48.398;11.754;2022-12-19T08:50:49;44.60;;;16.58;;
60478;SDS011;46321;48.398;11.754;2022-12-19T08:53:18;55.28;;;17.30;;
60478;SDS011;46321;48.398;11.754;2022-12-19T08:55:44;47.13;;;17.27;;
60478;SDS011;46321;48.398;11.754;2022-12-19T08:58:10;43.15;;;16.98;;
60478;SDS011;46321;48.398;11.754;2022-12-19T09:00:35;47.25;;;16.45;;
60478;SDS011;46321;48.398;11.754;2022-12-19T09:03:01;51.88;;;17.05;;
60478;SDS011;46321;48.398;11.754;2022-12-19T09:05:26;49.38;;;17.75;;
60478;SDS011;46321;48.398;11.754;2022-12-19T09:07:51;46.28;;;15.57;;
60478;SDS011;46321;48.398;11.754;2022-12-19T09:10:16;45.60;;;16.52;;
60478;SDS011;46321;48.398;11.754;2022-12-19T09:12:42;46.78;;;16.60;;
60478;SDS011;46321;48.398;11.754;2022-12-19T09:15:07;46.55;;;15.80;;
60478;SDS011;46321;48.398;11.754;2022-12-19T09:17:33;41.97;;;16.63;;
60478;SDS011;46321;48.398;11.754;2022-12-19T09:19:58;54.83;;;17.38;;
60478;SDS011;46321;48.398;11.754;2022-12-19T09:22:23;45.38;;;16.08;;
60478;SDS011;46321;48.398;11.754;2022-12-19T09:24:48;42.40;;;16.48;;
60478;SDS011;46321;48.398;11.754;2022-12-19T09:27:14;42.35;;;16.05;;
60478;SDS011;46321;48.398;11.754;2022-12-19T09:29:39;49.60;;;16.23;;
60478;SDS011;46321;48.398;11.754;2022-12-19T09:32:04;47.13;;;16.65;;
60478;SDS011;46321;48.398;11.754;2022-12-19T09:34:29;44.38;;;15.82;;
60478;SDS011;46321;48.398;11.754;2022-12-19T09:36:55;44.13;;;16.88;;
60478;SDS011;46321;48.398;11.754;2022-12-19T09:39:20;38.90;;;14.60;;
60478;SDS011;46321;48.398;11.754;2022-12-19T09:44:28;42.67;;;15.73;;
60478;SDS011;46321;48.398;11.754;2022-12-19T09:47:09;50.20;;;17.23;;
60478;SDS011;46321;48.398;11.754;2022-12-19T09:49:40;51.72;;;17.92;;
60478;SDS011;46321;48.398;11.754;2022-12-19T09:52:23;43.47;;;17.05;;
60478;SDS011;46321;48.398;11.754;2022-12-19T09:54:54;44.60;;;16.17;;
60478;SDS011;46321;48.398;11.754;2022-12-19T09:57:28;44.28;;;16.23;;
60478;SDS011;46321;48.398;11.754;2022-12-19T10:00:12;45.90;;;15.80;;
60478;SDS011;46321;48.398;11.754;2022-12-19T10:02:41;44.50;;;17.02;;
60478;SDS011;46321;48.398;11.754;2022-12-19T10:05:12;38.83;;;15.65;;
60478;SDS011;46321;48.398;11.754;2022-12-19T10:07:38;45.05;;;16.63;;
60478;SDS011;46321;48.398;11.754;2022-12-19T10:10:04;42.80;;;16.70;;
60478;SDS011;46321;48.398;11.754;2022-12-19T10:12:34;42.88;;;16.83;;
60478;SDS011;46321;48.398;11.754;2022-12-19T10:15:11;45.00;;;16.70;;
60478;SDS011;46321;48.398;11.754;2022-12-19T10:18:09;46.58;;;18.15;;
60478;SDS011;46321;48.398;11.754;2022-12-19T10:20:36;44.97;;;16.00;;
60478;SDS011;46321;48.398;11.754;2022-12-19T10:23:15;47.70;;;17.55;;
60478;SDS011;46321;48.398;11.754;2022-12-19T10:25:54;46.70;;;16.52;;
60478;SDS011;46321;48.398;11.754;2022-12-19T10:34:01;41.97;;;15.85;;
60478;SDS011;46321;48.398;11.754;2022-12-19T10:36:45;45.75;;;15.20;;
60478;SDS011;46321;48.398;11.754;2022-12-19T10:39:41;40.08;;;15.68;;
60478;SDS011;46321;48.398;11.754;2022-12-19T10:42:17;46.00;;;16.77;;
60478;SDS011;46321;48.398;11.754;2022-12-19T10:44:50;44.30;;;16.90;;
60478;SDS011;46321;48.398;11.754;2022-12-19T10:47:18;48.45;;;16.50;;
60478;SDS011;46321;48.398;11.754;2022-12-19T10:49:44;47.78;;;18.02;;
60478;SDS011;46321;48.398;11.754;2022-12-19T10:52:10;43.33;;;16.15;;
60478;SDS011;46321;48.398;11.754;2022-12-19T11:02:25;48.80;;;17.90;;
60478;SDS011;46321;48.398;11.754;2022-12-19T11:05:18;46.45;;;16.98;;
60478;SDS011;46321;48.398;11.754;2022-12-19T11:07:57;46.38;;;17.45;;
60478;SDS011;46321;48.398;11.754;2022-12-19T11:10:38;40.13;;;17.33;;
60478;SDS011;46321;48.398;11.754;2022-12-19T11:15:45;47.65;;;17.70;;
60478;SDS011;46321;48.398;11.754;2022-12-19T11:18:14;46.08;;;18.38;;
60478;SDS011;46321;48.398;11.754;2022-12-19T11:20:40;45.08;;;18.60;;
60478;SDS011;46321;48.398;11.754;2022-12-19T11:23:17;44.00;;;16.55;;
60478;SDS011;46321;48.398;11.754;2022-12-19T11:25:42;49.70;;;16.92;;
60478;SDS011;46321;48.398;11.754;2022-12-19T11:28:15;47.90;;;17.27;;
60478;SDS011;46321;48.398;11.754;2022-12-19T11:30:53;43.33;;;16.70;;
60478;SDS011;46321;48.398;11.754;2022-12-19T11:33:20;41.92;;;17.17;;
60478;SDS011;46321;48.398;11.754;2022-12-19T11:35:47;42.78;;;17.75;;
60478;SDS011;46321;48.398;11.754;2022-12-19T11:38:15;41.78;;;16.10;;
60478;SDS011;46321;48.398;11.754;2022-12-19T11:40:47;44.20;;;16.23;;
60478;SDS011;46321;48.398;11.754;2022-12-19T11:46:04;42.60;;;16.48;;
60478;SDS011;46321;48.398;11.754;2022-12-19T11:48:38;35.80;;;15.35;;
60478;SDS011;46321;48.398;11.754;2022-12-19T11:51:13;41.78;;;16.55;;
60478;SDS011;46321;48.398;11.754;2022-12-19T11:53:44;40.03;;;16.27;;
60478;SDS011;46321;48.398;11.754;2022-12-19T11:56:29;37.55;;;15.93;;
60478;SDS011;46321;48.398;11.754;2022-12-19T11:59:16;41.40;;;15.52;;
60478;SDS011;46321;48.398;11.754;2022-12-19T12:04:35;41.00;;;16.80;;
60478;SDS011;46321;48.398;11.754;2022-12-19T12:07:13;37.30;;;16.05;;
60478;SDS011;46321;48.398;11.754;2022-12-19T12:12:23;45.05;;;17.50;;
60478;SDS011;46321;48.398;11.754;2022-12-19T12:15:14;37.60;;;15.70;;
60478;SDS011;46321;48.398;11.754;2022-12-19T12:17:53;38.55;;;16.00;;
60478;SDS011;46321;48.398;11.754;2022-12-19T12:26:32;42.90;;;16.77;;
60478;SDS011;46321;48.398;11.754;2022-12-19T12:34:33;44.25;;;17.67;;
60478;SDS011;46321;48.398;11.754;2022-12-19T12:37:17;41.20;;;16.55;;
60478;SDS011;46321;48.398;11.754;2022-12-19T12:40:17;44.55;;;17.23;;
60478;SDS011;46321;48.398;11.754;2022-12-19T12:45:55;43.92;;;17.55;;
60478;SDS011;46321;48.398;11.754;2022-12-19T12:50:55;43.20;;;17.13;;
60478;SDS011;46321;48.398;11.754;2022-12-19T12:53:23;40.67;;;17.42;;
60478;SDS011;46321;48.398;11.754;2022-12-19T12:55:53;39.97;;;15.98;;
60478;SDS011;46321;48.398;11.754;2022-12-19T13:01:09;41.20;;;16.52;;
60478;SDS011;46321;48.398;11.754;2022-12-19T13:03:50;41.30;;;16.67;;
60478;SDS011;46321;48.398;11.754;2022-12-19T13:06:23;44.33;;;17.25;;
60478;SDS011;46321;48.398;11.754;2022-12-19T13:08:52;39.45;;;17.15;;
60478;SDS011;46321;48.398;11.754;2022-12-19T13:14:40;51.85;;;19.63;;
60478;SDS011;46321;48.398;11.754;2022-12-19T13:16:58;44.03;;;17.30;;
60478;SDS011;46321;48.398;11.754;2022-12-19T13:19:31;42.53;;;17.08;;
60478;SDS011;46321;48.398;11.754;2022-12-19T13:24:39;45.75;;;18.13;;
60478;SDS011;46321;48.398;11.754;2022-12-19T13:27:40;49.55;;;18.17;;
60478;SDS011;46321;48.398;11.754;2022-12-19T13:35:02;51.25;;;19.85;;
60478;SDS011;46321;48.398;11.754;2022-12-19T13:40:05;42.17;;;17.65;;
60478;SDS011;46321;48.398;11.754;2022-12-19T13:45:49;40.92;;;16.13;;
60478;SDS011;46321;48.398;11.754;2022-12-19T13:48:26;49.67;;;19.00;;
60478;SDS011;46321;48.398;11.754;2022-12-19T13:51:03;44.63;;;18.60;;
60478;SDS011;46321;48.398;11.754;2022-12-19T13:53:31;48.13;;;18.08;;
60478;SDS011;46321;48.398;11.754;2022-12-19T13:56:04;50.92;;;18.38;;
60478;SDS011;46321;48.398;11.754;2022-12-19T13:58:36;43.53;;;18.20;;
60478;SDS011;46321;48.398;11.754;2022-12-19T14:01:20;43.83;;;17.23;;
60478;SDS011;46321;48.398;11.754;2022-12-19T14:03:46;44.55;;;18.27;;
60478;SDS011;46321;48.398;11.754;2022-12-19T14:06:17;46.15;;;18.00;;
60478;SDS011;46321;48.398;11.754;2022-12-19T14:08:45;44.05;;;17.40;;
60478;SDS011;46321;48.398;11.754;2022-12-19T14:11:16;40.70;;;17.33;;
60478;SDS011;46321;48.398;11.754;2022-12-19T14:13:44;45.33;;;16.67;;
60478;SDS011;46321;48.398;11.754;2022-12-19T14:16:33;50.47;;;18.60;;
60478;SDS011;46321;48.398;11.754;2022-12-19T14:18:58;47.00;;;17.90;;
60478;SDS011;46321;48.398;11.754;2022-12-19T14:21:25;40.63;;;16.90;;
60478;SDS011;46321;48.398;11.754;2022-12-19T14:24:33;48.63;;;18.65;;
60478;SDS011;46321;48.398;11.754;2022-12-19T14:26:49;44.20;;;17.63;;
60478;SDS011;46321;48.398;11.754;2022-12-19T14:29:29;39.20;;;16.17;;
60478;SDS011;46321;48.398;11.754;2022-12-19T14:32:07;40.83;;;18.05;;
60478;SDS011;46321;48.398;11.754;2022-12-19T14:34:32;42.55;;;18.17;;
60478;SDS011;46321;48.398;11.754;2022-12-19T14:36:59;42.85;;;17.50;;
60478;SDS011;46321;48.398;11.754;2022-12-19T14:39:29;41.65;;;16.42;;
60478;SDS011;46321;48.398;11.754;2022-12-19T14:42:04;43.50;;;16.65;;
60478;SDS011;46321;48.398;11.754;2022-12-19T14:44:55;45.88;;;17.15;;
60478;SDS011;46321;48.398;11.754;2022-12-19T14:47:34;42.92;;;17.55;;
60478;SDS011;46321;48.398;11.754;2022-12-19T14:50:01;42.33;;;18.70;;
60478;SDS011;46321;48.398;11.754;2022-12-19T14:53:07;40.40;;;17.73;;
60478;SDS011;46321;48.398;11.754;2022-12-19T14:55:40;44.70;;;17.65;;
60478;SDS011;46321;48.398;11.754;2022-12-19T14:58:09;39.83;;;17.13;;
60478;SDS011;46321;48.398;11.754;2022-12-19T15:00:41;45.47;;;17.58;;
60478;SDS011;46321;48.398;11.754;2022-12-19T15:03:11;46.22;;;18.60;;
60478;SDS011;46321;48.398;11.754;2022-12-19T15:05:48;47.58;;;17.85;;
60478;SDS011;46321;48.398;11.754;2022-12-19T15:08:15;45.88;;;18.35;;
60478;SDS011;46321;48.398;11.754;2022-12-19T15:10:52;47.00;;;17.42;;
60478;SDS011;46321;48.398;11.754;2022-12-19T15:13:23;44.53;;;18.60;;
60478;SDS011;46321;48.398;11.754;2022-12-19T15:20:57;46.08;;;19.02;;
60478;SDS011;46321;48.398;11.754;2022-12-19T15:23:24;47.33;;;18.83;;
60478;SDS011;46321;48.398;11.754;2022-12-19T15:25:50;48.55;;;19.08;;
60478;SDS011;46321;48.398;11.754;2022-12-19T15:28:18;44.42;;;19.40;;
60478;SDS011;46321;48.398;11.754;2022-12-19T15:30:47;46.08;;;19.02;;
60478;SDS011;46321;48.398;11.754;2022-12-19T15:33:17;41.92;;;18.90;;
60478;SDS011;46321;48.398;11.754;2022-12-19T15:35:43;44.75;;;19.30;;
60478;SDS011;46321;48.398;11.754;2022-12-19T15:38:08;49.90;;;20.20;;
60478;SDS011;46321;48.398;11.754;2022-12-19T15:40:34;48.25;;;19.65;;
60478;SDS011;46321;48.398;11.754;2022-12-19T15:43:00;48.33;;;19.98;;
60478;SDS011;46321;48.398;11.754;2022-12-19T15:45:26;49.92;;;20.13;;
60478;SDS011;46321;48.398;11.754;2022-12-19T15:47:51;49.28;;;19.58;;
60478;SDS011;46321;48.398;11.754;2022-12-19T15:50:20;46.40;;;19.20;;
60478;SDS011;46321;48.398;11.754;2022-12-19T15:52:51;46.20;;;18.17;;
60478;SDS011;46321;48.398;11.754;2022-12-19T15:55:19;48.67;;;20.23;;
60478;SDS011;46321;48.398;11.754;2022-12-19T15:57:58;49.08;;;19.92;;